Time;durP1;ratioP1;P1;durP2;ratioP2;P2;SDS_P1;SDS_P2;PMS_P1;PMS_P2;Temp;Humidity;BMP_temperature;BMP_pressure;BME280_temperature;BME280_humidity;BME280_pressure;Samples;Min_cycle;Max_cycle;Signal;HPM_P1;HPM_P2
2022/06/12 00:01:26;;;;;;;6.40;5.27;;;;;;;;;;5023296;28;20466;-84
2022/06/12 00:03:52;;;;;;;7.50;5.77;;;;;;;;;;5021839;28;20508;-84
2022/06/12 00:06:19;;;;;;;12.20;6.13;;;;;;;;;;5020974;28;20423;-84
2022/06/12 00:08:45;;;;;;;11.03;6.43;;;;;;;;;;5020424;28;20489;-84
2022/06/12 00:11:12;;;;;;;10.83;6.80;;;;;;;;;;5029112;28;20453;-82
2022/06/12 00:13:43;;;;;;;8.73;5.97;;;;;;;;;;5037456;28;20434;-83
2022/06/12 00:16:11;;;;;;;8.20;6.07;;;;;;;;;;5037617;28;20383;-83
2022/06/12 00:18:37;;;;;;;6.57;5.43;;;;;;;;;;5037249;28;20539;-82
2022/06/12 00:21:12;;;;;;;7.73;5.73;;;;;;;;;;5029842;28;20764;-84
2022/06/12 00:23:44;;;;;;;6.87;5.23;;;;;;;;;;5022629;28;20459;-84
2022/06/12 00:26:11;;;;;;;10.33;6.27;;;;;;;;;;5022007;28;20427;-84
2022/06/12 00:28:37;;;;;;;7.73;5.50;;;;;;;;;;5021900;28;20602;-84
2022/06/12 00:31:03;;;;;;;5.83;5.23;;;;;;;;;;5029994;28;20505;-84
2022/06/12 00:33:29;;;;;;;8.07;5.53;;;;;;;;;;5030505;28;20399;-84
2022/06/12 00:35:55;;;;;;;6.20;5.00;;;;;;;;;;5027252;28;20467;-84
2022/06/12 00:38:21;;;;;;;9.40;5.77;;;;;;;;;;5033302;28;20446;-82
2022/06/12 00:40:47;;;;;;;6.90;5.63;;;;;;;;;;5041350;28;20410;-82
2022/06/12 00:43:14;;;;;;;6.60;5.10;;;;;;;;;;5041273;28;20423;-82
2022/06/12 00:45:43;;;;;;;7.77;5.70;;;;;;;;;;5041282;28;20434;-82
2022/06/12 00:48:17;;;;;;;5.63;4.50;;;;;;;;;;5041143;28;20419;-82
2022/06/12 00:50:46;;;;;;;5.53;4.50;;;;;;;;;;5041359;28;20419;-82
2022/06/12 00:53:15;;;;;;;6.23;4.73;;;;;;;;;;5041066;28;20380;-82
2022/06/12 00:56:04;;;;;;;7.00;4.90;;;;;;;;;;5040927;28;20411;-81
2022/06/12 00:58:32;;;;;;;5.50;4.73;;;;;;;;;;5030671;28;20455;-83
2022/06/12 01:00:58;;;;;;;7.73;6.10;;;;;;;;;;5040951;28;20462;-81
2022/06/12 01:03:25;;;;;;;8.60;5.73;;;;;;;;;;5040740;28;20395;-81
2022/06/12 01:08:37;;;;;;;5.80;5.03;;;;;;;;;;5040427;28;20469;-81
2022/06/12 01:11:06;;;;;;;8.43;7.43;;;;;;;;;;5040655;28;20427;-82
2022/06/12 01:13:35;;;;;;;7.80;6.40;;;;;;;;;;5040719;28;20426;-82
2022/06/12 01:16:03;;;;;;;8.07;5.17;;;;;;;;;;5040470;28;20399;-82
2022/06/12 01:18:35;;;;;;;7.97;5.00;;;;;;;;;;5036827;28;20415;-83
2022/06/12 01:21:19;;;;;;;6.40;4.23;;;;;;;;;;5040290;28;20399;-82
2022/06/12 01:24:06;;;;;;;9.30;4.73;;;;;;;;;;5040527;28;20434;-82
2022/06/12 01:26:50;;;;;;;6.80;4.83;;;;;;;;;;5000950;28;20435;-83
2022/06/12 01:29:21;;;;;;;5.93;4.83;;;;;;;;;;5040304;28;20454;-83
2022/06/12 01:31:47;;;;;;;5.67;4.47;;;;;;;;;;5040433;28;20396;-82
2022/06/12 01:34:22;;;;;;;6.53;4.50;;;;;;;;;;5040457;28;20443;-83
2022/06/12 01:37:06;;;;;;;7.53;4.97;;;;;;;;;;5040244;28;20422;-82
2022/06/12 01:39:51;;;;;;;5.70;4.80;;;;;;;;;;5040315;28;20399;-83
2022/06/12 01:42:26;;;;;;;8.53;5.07;;;;;;;;;;5040184;28;20471;-82
2022/06/12 01:45:11;;;;;;;6.17;5.27;;;;;;;;;;5040314;28;20388;-82
2022/06/12 01:47:43;;;;;;;6.53;5.40;;;;;;;;;;5039128;28;20435;-82
2022/06/12 01:50:09;;;;;;;5.83;4.60;;;;;;;;;;5039896;28;20458;-83
2022/06/12 01:52:38;;;;;;;7.23;5.03;;;;;;;;;;5039979;28;20407;-81
2022/06/12 01:55:17;;;;;;;7.10;4.80;;;;;;;;;;5040060;28;20395;-83
2022/06/12 01:58:06;;;;;;;6.80;5.50;;;;;;;;;;5039756;28;20454;-82
2022/06/12 02:00:33;;;;;;;6.80;4.67;;;;;;;;;;5029989;28;20408;-83
2022/06/12 02:03:01;;;;;;;9.93;4.77;;;;;;;;;;5039802;28;20415;-81
2022/06/12 02:05:27;;;;;;;8.27;5.07;;;;;;;;;;5039552;28;20404;-80
2022/06/12 02:07:53;;;;;;;5.83;4.57;;;;;;;;;;5039523;28;20446;-82
2022/06/12 02:10:19;;;;;;;7.60;4.47;;;;;;;;;;5039392;28;20457;-83
2022/06/12 02:15:38;;;;;;;5.67;4.97;;;;;;;;;;5039649;28;20399;-83
2022/06/12 02:18:08;;;;;;;5.33;4.77;;;;;;;;;;5039522;28;20535;-81
2022/06/12 02:20:37;;;;;;;5.57;4.60;;;;;;;;;;5039419;28;20434;-82
2022/06/12 02:23:07;;;;;;;11.00;6.47;;;;;;;;;;5038348;28;20425;-83
2022/06/12 02:25:35;;;;;;;6.80;4.70;;;;;;;;;;5020562;28;20442;-82
2022/06/12 02:28:08;;;;;;;6.13;4.53;;;;;;;;;;5022198;28;20435;-82
2022/06/12 02:30:39;;;;;;;5.27;4.77;;;;;;;;;;5039221;28;20471;-82
2022/06/12 02:33:07;;;;;;;6.10;4.23;;;;;;;;;;5036339;28;20420;-82
2022/06/12 02:35:39;;;;;;;6.00;4.90;;;;;;;;;;5035996;28;20407;-82
2022/06/12 02:38:20;;;;;;;7.23;4.93;;;;;;;;;;5039148;28;20427;-81
2022/06/12 02:40:50;;;;;;;7.33;4.53;;;;;;;;;;5039134;28;20410;-82
2022/06/12 02:43:19;;;;;;;5.57;4.07;;;;;;;;;;5038909;28;20450;-82
2022/06/12 02:45:48;;;;;;;4.80;3.90;;;;;;;;;;5038245;28;20415;-81
2022/06/12 02:48:14;;;;;;;4.43;3.83;;;;;;;;;;5038723;28;20445;-81
2022/06/12 02:51:00;;;;;;;6.70;4.60;;;;;;;;;;5038976;28;20454;-82
2022/06/12 02:53:26;;;;;;;5.53;3.90;;;;;;;;;;5025606;28;20411;-82
2022/06/12 02:56:18;;;;;;;5.30;4.10;;;;;;;;;;5037333;28;20469;-83
2022/06/12 02:58:51;;;;;;;4.73;3.80;;;;;;;;;;5034919;28;20438;-82
2022/06/12 03:01:20;;;;;;;4.80;4.10;;;;;;;;;;5035842;28;20384;-81
2022/06/12 03:04:00;;;;;;;9.00;5.13;;;;;;;;;;5019830;28;20419;-82
2022/06/12 03:06:27;;;;;;;5.37;3.43;;;;;;;;;;5037035;28;20414;-82
2022/06/12 03:08:56;;;;;;;5.30;3.70;;;;;;;;;;5037498;28;20482;-80
2022/06/12 03:11:21;;;;;;;3.97;3.57;;;;;;;;;;5037115;28;20395;-80
2022/06/12 03:13:48;;;;;;;7.90;4.60;;;;;;;;;;5038629;28;20414;-82
2022/06/12 03:16:16;;;;;;;7.33;4.47;;;;;;;;;;5038446;28;20414;-82
2022/06/12 03:18:46;;;;;;;4.90;4.30;;;;;;;;;;5037341;28;20462;-82
2022/06/12 03:21:15;;;;;;;5.03;3.77;;;;;;;;;;5037907;28;20502;-81
2022/06/12 03:24:00;;;;;;;6.40;4.73;;;;;;;;;;5038454;28;20391;-81
2022/06/12 03:26:36;;;;;;;4.57;3.93;;;;;;;;;;5038295;28;20478;-82
2022/06/12 03:29:21;;;;;;;7.37;4.57;;;;;;;;;;5037148;28;20553;-82
2022/06/12 03:31:53;;;;;;;5.20;4.47;;;;;;;;;;5037217;28;20418;-81
2022/06/12 03:34:27;;;;;;;4.77;3.90;;;;;;;;;;5036567;28;20442;-81
2022/06/12 03:36:57;;;;;;;4.77;3.70;;;;;;;;;;5037975;28;20437;-82
2022/06/12 03:39:49;;;;;;;5.27;3.80;;;;;;;;;;5037882;28;20391;-82
2022/06/12 03:42:21;;;;;;;5.13;3.83;;;;;;;;;;4997164;28;20465;-84
2022/06/12 03:44:59;;;;;;;6.17;3.90;;;;;;;;;;5020811;28;20411;-83
2022/06/12 03:47:43;;;;;;;4.07;3.67;;;;;;;;;;5020005;28;20931;-84
2022/06/12 03:50:09;;;;;;;3.60;3.30;;;;;;;;;;5019361;28;20834;-84
2022/06/12 03:52:58;;;;;;;4.10;3.30;;;;;;;;;;5019908;28;20412;-84
2022/06/12 03:57:50;;;;;;;4.87;3.87;;;;;;;;;;5008702;28;20777;-83
2022/06/12 03:58:16;;;;;;;5.07;3.30;;;;;;;;;;5018717;28;20489;-84
2022/06/12 04:00:43;;;;;;;3.07;2.70;;;;;;;;;;5019531;28;20388;-83
2022/06/12 04:03:18;;;;;;;5.67;4.03;;;;;;;;;;5020082;28;20399;-84
2022/06/12 04:05:46;;;;;;;4.10;3.53;;;;;;;;;;5019806;28;20888;-84
2022/06/12 04:08:19;;;;;;;4.07;3.30;;;;;;;;;;5019288;28;20469;-84
2022/06/12 04:10:46;;;;;;;5.13;3.27;;;;;;;;;;5019816;28;20412;-83
2022/06/12 04:13:13;;;;;;;4.27;3.10;;;;;;;;;;5019328;28;20411;-84
2022/06/12 04:15:45;;;;;;;3.97;3.00;;;;;;;;;;5001884;28;20985;-83
2022/06/12 04:18:11;;;;;;;4.00;3.07;;;;;;;;;;5020354;28;20470;-84
2022/06/12 04:20:40;;;;;;;5.20;3.23;;;;;;;;;;4999562;28;20419;-83
2022/06/12 04:23:21;;;;;;;3.77;3.33;;;;;;;;;;5014350;28;20465;-82
2022/06/12 04:25:52;;;;;;;6.53;3.20;;;;;;;;;;5014399;28;20518;-82
2022/06/12 04:28:38;;;;;;;5.10;2.97;;;;;;;;;;5015894;28;20430;-83
2022/06/12 04:31:12;;;;;;;3.90;3.30;;;;;;;;;;5016995;28;20452;-84
2022/06/12 04:33:47;;;;;;;3.80;3.40;;;;;;;;;;5026466;28;20467;-84
2022/06/12 04:36:13;;;;;;;4.27;3.20;;;;;;;;;;5030562;28;20402;-83
2022/06/12 04:38:39;;;;;;;4.30;3.20;;;;;;;;;;5034930;28;20431;-82
2022/06/12 04:41:05;;;;;;;3.87;3.07;;;;;;;;;;5030153;28;20407;-83
2022/06/12 04:43:32;;;;;;;4.13;3.30;;;;;;;;;;5029036;28;20411;-82
2022/06/12 04:45:58;;;;;;;4.27;3.87;;;;;;;;;;5034724;28;20422;-81
2022/06/12 04:48:27;;;;;;;3.53;3.00;;;;;;;;;;5035406;28;20450;-83
2022/06/12 04:50:53;;;;;;;4.07;3.10;;;;;;;;;;5021616;28;20431;-85
2022/06/12 04:53:19;;;;;;;4.80;3.63;;;;;;;;;;5021619;28;20416;-84
2022/06/12 04:55:45;;;;;;;4.40;3.47;;;;;;;;;;5021659;28;20913;-84
2022/06/12 04:58:11;;;;;;;4.83;3.37;;;;;;;;;;5020933;28;20423;-84
2022/06/12 05:00:37;;;;;;;3.60;3.10;;;;;;;;;;5020624;28;20414;-84
2022/06/12 05:03:03;;;;;;;6.90;3.00;;;;;;;;;;5020525;28;20461;-84
2022/06/12 05:05:30;;;;;;;4.47;3.23;;;;;;;;;;5020847;28;20425;-84
2022/06/12 05:07:56;;;;;;;3.77;2.40;;;;;;;;;;5031815;23;20502;-88
2022/06/12 05:10:22;;;;;;;4.40;3.07;;;;;;;;;;5015351;28;20471;-88
2022/06/12 05:12:48;;;;;;;3.23;2.67;;;;;;;;;;5016122;28;20549;-87
2022/06/12 05:15:15;;;;;;;4.57;3.50;;;;;;;;;;5032559;28;20416;-87
2022/06/12 05:17:42;;;;;;;3.63;2.83;;;;;;;;;;5017641;28;20427;-87
2022/06/12 05:20:13;;;;;;;3.97;2.60;;;;;;;;;;5000021;28;20443;-86
2022/06/12 05:22:39;;;;;;;3.43;2.40;;;;;;;;;;5019090;28;20415;-85
2022/06/12 05:25:05;;;;;;;3.00;2.70;;;;;;;;;;5022455;28;20462;-87
2022/06/12 05:27:32;;;;;;;3.00;2.57;;;;;;;;;;5003653;28;20495;-88
2022/06/12 05:29:58;;;;;;;3.70;2.93;;;;;;;;;;5020663;28;20462;-88
2022/06/12 05:32:24;;;;;;;4.10;2.70;;;;;;;;;;5001234;28;20411;-85
2022/06/12 05:34:51;;;;;;;3.73;2.73;;;;;;;;;;5028626;28;20429;-87
2022/06/12 05:37:17;;;;;;;3.67;3.00;;;;;;;;;;5005610;28;20446;-88
2022/06/12 05:39:43;;;;;;;4.03;3.10;;;;;;;;;;5004804;28;20423;-88
2022/06/12 05:42:09;;;;;;;6.73;2.63;;;;;;;;;;5021944;28;20480;-87
2022/06/12 05:44:36;;;;;;;3.60;2.30;;;;;;;;;;5003347;28;20498;-87
2022/06/12 05:47:02;;;;;;;2.70;2.10;;;;;;;;;;5021988;28;20841;-87
2022/06/12 05:49:28;;;;;;;4.17;2.20;;;;;;;;;;5004185;28;20823;-86
2022/06/12 05:51:55;;;;;;;2.83;2.40;;;;;;;;;;5003655;28;20519;-87
2022/06/12 05:54:21;;;;;;;2.87;2.30;;;;;;;;;;5003875;28;20411;-87
2022/06/12 05:56:48;;;;;;;3.50;2.67;;;;;;;;;;5003081;28;20403;-86
2022/06/12 05:59:14;;;;;;;3.57;2.87;;;;;;;;;;5002419;28;20550;-87
2022/06/12 06:01:41;;;;;;;5.07;2.20;;;;;;;;;;5002284;28;20415;-86
2022/06/12 06:04:08;;;;;;;5.47;2.50;;;;;;;;;;5018878;28;20756;-87
2022/06/12 06:06:36;;;;;;;3.73;2.50;;;;;;;;;;5019188;28;20407;-87
2022/06/12 06:09:03;;;;;;;2.93;2.37;;;;;;;;;;5019470;28;20627;-88
2022/06/12 06:11:29;;;;;;;4.83;2.50;;;;;;;;;;5020186;28;20491;-86
2022/06/12 06:13:55;;;;;;;2.73;2.17;;;;;;;;;;5001463;28;20453;-88
2022/06/12 06:16:22;;;;;;;2.77;2.20;;;;;;;;;;5018989;28;20427;-86
2022/06/12 06:18:48;;;;;;;3.33;2.40;;;;;;;;;;5003084;28;20439;-87
2022/06/12 06:21:15;;;;;;;4.43;2.20;;;;;;;;;;5000653;28;20461;-87
2022/06/12 06:23:41;;;;;;;3.90;2.23;;;;;;;;;;4999095;28;20420;-86
2022/06/12 06:26:08;;;;;;;6.60;2.40;;;;;;;;;;5017434;28;20450;-87
2022/06/12 06:28:35;;;;;;;2.20;1.90;;;;;;;;;;5000402;28;20443;-86
2022/06/12 06:31:01;;;;;;;2.50;2.00;;;;;;;;;;5000910;28;20426;-86
2022/06/12 06:33:27;;;;;;;5.03;1.97;;;;;;;;;;4999339;28;20438;-88
2022/06/12 06:35:53;;;;;;;3.60;2.30;;;;;;;;;;5017184;28;20408;-87
2022/06/12 06:38:19;;;;;;;3.30;2.20;;;;;;;;;;5017552;28;20994;-87
2022/06/12 06:40:45;;;;;;;5.17;2.37;;;;;;;;;;4999244;28;20408;-87
2022/06/12 06:43:11;;;;;;;3.60;2.30;;;;;;;;;;4998721;28;20399;-87
2022/06/12 06:48:23;;;;;;;5.00;2.73;;;;;;;;;;5016562;28;20427;-87
2022/06/12 06:50:49;;;;;;;2.60;2.37;;;;;;;;;;5016797;28;20403;-87
2022/06/12 06:53:15;;;;;;;3.43;2.20;;;;;;;;;;5016531;28;20443;-86
2022/06/12 06:55:41;;;;;;;3.03;2.20;;;;;;;;;;5016508;28;20395;-87
2022/06/12 06:58:12;;;;;;;5.50;2.87;;;;;;;;;;4999008;28;20423;-87
2022/06/12 07:00:39;;;;;;;2.90;2.13;;;;;;;;;;5017148;28;20859;-87
2022/06/12 07:03:05;;;;;;;3.40;2.27;;;;;;;;;;5016808;28;20912;-87
2022/06/12 07:05:32;;;;;;;2.60;2.03;;;;;;;;;;5016090;28;20404;-86
2022/06/12 07:08:00;;;;;;;4.63;2.80;;;;;;;;;;4997680;28;20447;-88
2022/06/12 07:10:28;;;;;;;4.33;2.40;;;;;;;;;;5015582;28;20477;-87
2022/06/12 07:12:55;;;;;;;2.87;2.10;;;;;;;;;;4998257;28;20446;-86
2022/06/12 07:15:22;;;;;;;3.23;2.60;;;;;;;;;;5016435;28;20494;-87
2022/06/12 07:17:48;;;;;;;2.70;1.97;;;;;;;;;;5015829;28;20427;-88
2022/06/12 07:20:16;;;;;;;8.90;2.37;;;;;;;;;;4998377;28;20419;-87
2022/06/12 07:22:42;;;;;;;2.67;2.10;;;;;;;;;;4998295;28;20465;-86
2022/06/12 07:25:12;;;;;;;3.00;2.00;;;;;;;;;;5016434;28;20491;-87
2022/06/12 07:27:38;;;;;;;4.40;2.40;;;;;;;;;;4999676;28;20438;-86
2022/06/12 07:30:06;;;;;;;5.27;2.33;;;;;;;;;;4998785;28;20487;-87
2022/06/12 07:32:33;;;;;;;2.37;1.63;;;;;;;;;;5015770;28;20418;-86
2022/06/12 07:34:59;;;;;;;3.10;2.20;;;;;;;;;;5015840;28;20416;-87
2022/06/12 07:37:25;;;;;;;3.90;2.30;;;;;;;;;;5015630;28;20423;-87
2022/06/12 07:39:51;;;;;;;3.10;2.43;;;;;;;;;;4998736;28;20426;-87
2022/06/12 07:42:17;;;;;;;2.90;2.60;;;;;;;;;;5029527;28;20400;-86
2022/06/12 07:44:44;;;;;;;4.67;1.80;;;;;;;;;;5037818;28;20434;-86
2022/06/12 07:47:10;;;;;;;3.27;2.17;;;;;;;;;;5016122;28;20407;-87
2022/06/12 07:49:36;;;;;;;2.73;2.03;;;;;;;;;;5015508;28;20454;-88
2022/06/12 07:52:05;;;;;;;2.93;2.17;;;;;;;;;;5016090;28;20873;-87
2022/06/12 07:54:31;;;;;;;2.33;1.67;;;;;;;;;;5015804;28;20407;-87
2022/06/12 07:56:58;;;;;;;2.73;2.10;;;;;;;;;;5015829;28;20436;-88
2022/06/12 07:59:24;;;;;;;2.90;2.00;;;;;;;;;;4998228;28;20422;-87
2022/06/12 08:01:52;;;;;;;3.03;2.40;;;;;;;;;;5016029;28;20891;-86
2022/06/12 08:04:19;;;;;;;2.50;1.83;;;;;;;;;;4999208;28;20450;-87
2022/06/12 08:06:45;;;;;;;3.73;1.93;;;;;;;;;;4998731;28;20506;-87
2022/06/12 08:09:11;;;;;;;5.93;1.77;;;;;;;;;;4997539;28;20467;-85
2022/06/12 08:11:38;;;;;;;3.00;1.90;;;;;;;;;;5015841;28;20406;-86
2022/06/12 08:14:04;;;;;;;3.30;1.87;;;;;;;;;;5015669;28;20419;-86
2022/06/12 08:16:32;;;;;;;3.40;1.87;;;;;;;;;;4997799;28;20411;-86
2022/06/12 08:18:58;;;;;;;3.97;1.90;;;;;;;;;;5016061;28;20803;-88
2022/06/12 08:21:25;;;;;;;3.80;2.20;;;;;;;;;;5003636;28;20411;-86
2022/06/12 08:23:54;;;;;;;3.23;1.90;;;;;;;;;;5020053;28;20410;-87
2022/06/12 08:26:24;;;;;;;4.27;1.90;;;;;;;;;;5016035;28;20414;-87
2022/06/12 08:28:53;;;;;;;5.30;4.17;;;;;;;;;;4997382;28;20467;-85
2022/06/12 08:31:21;;;;;;;3.93;2.00;;;;;;;;;;5015300;28;20874;-85
2022/06/12 08:33:49;;;;;;;2.93;2.10;;;;;;;;;;4997903;28;20404;-85
2022/06/12 08:36:15;;;;;;;2.67;1.67;;;;;;;;;;5013311;28;20404;-86
2022/06/12 08:38:42;;;;;;;2.47;1.60;;;;;;;;;;5012764;28;20434;-86
2022/06/12 08:41:10;;;;;;;3.80;2.20;;;;;;;;;;4998547;28;20422;-86
2022/06/12 08:44:03;;;;;;;2.67;1.87;;;;;;;;;;4997990;28;20780;-86
2022/06/12 08:46:49;;;;;;;2.50;1.57;;;;;;;;;;5011670;28;20916;-86
2022/06/12 08:49:27;;;;;;;2.67;1.80;;;;;;;;;;5014696;28;20550;-87
2022/06/12 08:51:53;;;;;;;3.27;1.80;;;;;;;;;;4997177;28;20414;-87
2022/06/12 08:54:21;;;;;;;2.47;1.60;;;;;;;;;;5027026;28;20869;-87
2022/06/12 08:56:51;;;;;;;3.73;1.73;;;;;;;;;;4999549;28;20411;-87
2022/06/12 08:59:17;;;;;;;3.10;2.30;;;;;;;;;;5023628;28;20403;-87
2022/06/12 09:01:43;;;;;;;2.70;1.97;;;;;;;;;;5015185;28;20908;-88
2022/06/12 09:04:11;;;;;;;3.80;1.97;;;;;;;;;;5001603;28;20411;-88
2022/06/12 09:06:37;;;;;;;2.40;1.60;;;;;;;;;;5001193;28;20411;-88
2022/06/12 09:09:12;;;;;;;2.93;1.70;;;;;;;;;;5000283;28;20478;-87
2022/06/12 09:11:41;;;;;;;5.43;1.87;;;;;;;;;;5000776;28;20438;-87
2022/06/12 09:14:29;;;;;;;3.80;2.33;;;;;;;;;;5001569;28;20407;-87
2022/06/12 09:16:54;;;;;;;2.73;1.70;;;;;;;;;;5018664;28;20387;-87
2022/06/12 09:19:33;;;;;;;3.47;2.67;;;;;;;;;;5018445;28;20414;-87
2022/06/12 09:22:09;;;;;;;2.47;1.73;;;;;;;;;;5018189;28;20494;-86
2022/06/12 09:24:35;;;;;;;3.27;2.00;;;;;;;;;;5001144;28;20414;-89
2022/06/12 09:27:19;;;;;;;3.50;2.17;;;;;;;;;;5018146;28;20414;-87
2022/06/12 09:29:52;;;;;;;2.70;1.97;;;;;;;;;;5000326;28;20482;-87
2022/06/12 09:32:37;;;;;;;2.80;1.77;;;;;;;;;;5017845;28;20399;-87
2022/06/12 09:35:17;;;;;;;2.13;1.70;;;;;;;;;;5018529;28;20464;-85
2022/06/12 09:38:19;;;;;;;3.70;1.90;;;;;;;;;;5018862;28;20497;-87
2022/06/12 09:41:04;;;;;;;2.33;1.50;;;;;;;;;;5018629;28;20888;-86
2022/06/12 09:43:40;;;;;;;3.40;1.97;;;;;;;;;;5000758;28;20522;-86
2022/06/12 09:46:21;;;;;;;3.00;1.83;;;;;;;;;;5018532;28;20892;-86
2022/06/12 09:48:50;;;;;;;3.07;2.20;;;;;;;;;;5017569;28;20454;-86
2022/06/12 09:51:22;;;;;;;2.67;2.00;;;;;;;;;;5000576;28;20410;-86
2022/06/12 09:53:51;;;;;;;2.73;1.70;;;;;;;;;;5000415;28;20487;-86
2022/06/12 09:56:21;;;;;;;3.43;1.63;;;;;;;;;;4999920;28;20411;-86
2022/06/12 09:58:50;;;;;;;3.13;1.90;;;;;;;;;;5000795;28;20468;-86
2022/06/12 10:01:36;;;;;;;4.17;2.20;;;;;;;;;;5001464;28;20407;-87
2022/06/12 10:04:18;;;;;;;3.43;2.00;;;;;;;;;;5001574;28;20411;-88
2022/06/12 10:06:52;;;;;;;3.00;1.80;;;;;;;;;;5019867;28;20458;-88
2022/06/12 10:09:29;;;;;;;2.23;1.53;;;;;;;;;;5018309;28;20462;-87
2022/06/12 10:12:07;;;;;;;3.93;1.70;;;;;;;;;;5009923;28;20391;-87
2022/06/12 10:14:38;;;;;;;3.37;1.67;;;;;;;;;;5027397;28;20525;-88
2022/06/12 10:17:06;;;;;;;2.67;1.80;;;;;;;;;;5021528;28;20400;-87
2022/06/12 10:19:50;;;;;;;5.43;1.50;;;;;;;;;;5002824;28;20923;-87
2022/06/12 10:22:22;;;;;;;2.53;1.53;;;;;;;;;;5014699;28;20422;-87
2022/06/12 10:24:49;;;;;;;3.13;2.00;;;;;;;;;;5022243;28;20892;-87
2022/06/12 10:27:17;;;;;;;2.37;1.30;;;;;;;;;;5002245;28;20462;-87
2022/06/12 10:29:45;;;;;;;3.30;1.67;;;;;;;;;;5000643;28;20557;-87
2022/06/12 10:32:14;;;;;;;3.20;1.93;;;;;;;;;;5001318;28;20499;-87
2022/06/12 10:34:40;;;;;;;3.00;1.50;;;;;;;;;;5001778;28;20896;-87
2022/06/12 10:37:10;;;;;;;3.43;1.93;;;;;;;;;;5000485;28;20411;-87
2022/06/12 10:39:36;;;;;;;2.00;1.40;;;;;;;;;;5000380;28;20415;-86
2022/06/12 10:42:04;;;;;;;1.83;1.50;;;;;;;;;;5018577;28;20422;-87
2022/06/12 10:44:30;;;;;;;4.20;1.80;;;;;;;;;;5018259;28;20416;-88
2022/06/12 10:47:07;;;;;;;4.00;1.97;;;;;;;;;;4999945;28;20408;-87
2022/06/12 10:49:33;;;;;;;4.30;1.67;;;;;;;;;;4998908;28;20898;-86
2022/06/12 10:52:07;;;;;;;1.80;1.30;;;;;;;;;;5016960;28;20435;-87
2022/06/12 10:54:33;;;;;;;2.60;1.77;;;;;;;;;;4999512;28;20407;-87
2022/06/12 10:57:07;;;;;;;2.60;1.60;;;;;;;;;;5026627;28;20376;-87
2022/06/12 10:59:54;;;;;;;3.43;2.07;;;;;;;;;;5038814;28;20399;-86
2022/06/12 11:02:29;;;;;;;2.27;1.60;;;;;;;;;;4999628;28;20439;-87
2022/06/12 11:05:04;;;;;;;3.93;1.70;;;;;;;;;;4999534;28;20798;-87
2022/06/12 11:07:45;;;;;;;2.87;1.93;;;;;;;;;;5016454;28;20442;-87
2022/06/12 11:10:11;;;;;;;2.40;1.80;;;;;;;;;;5031357;23;20499;-85
2022/06/12 11:12:56;;;;;;;3.10;1.80;;;;;;;;;;5006560;28;20408;-85
2022/06/12 11:15:54;;;;;;;2.33;1.33;;;;;;;;;;5003316;28;20392;-84
2022/06/12 11:18:39;;;;;;;2.10;1.63;;;;;;;;;;4955762;28;20413;-85
2022/06/12 11:21:08;;;;;;;2.50;1.37;;;;;;;;;;4984905;28;20401;-84
2022/06/12 11:23:58;;;;;;;2.47;1.80;;;;;;;;;;4985438;28;20401;-83
2022/06/12 11:26:33;;;;;;;2.80;1.30;;;;;;;;;;4985234;28;20389;-84
2022/06/12 11:29:08;;;;;;;2.13;1.60;;;;;;;;;;4983871;28;20449;-84
2022/06/12 11:31:37;;;;;;;2.83;1.60;;;;;;;;;;4983351;28;20400;-85
2022/06/12 11:34:18;;;;;;;3.83;1.80;;;;;;;;;;4984992;28;21029;-84
2022/06/12 11:36:44;;;;;;;3.70;1.70;;;;;;;;;;4984828;28;20416;-84
2022/06/12 11:39:20;;;;;;;3.17;1.70;;;;;;;;;;4985678;28;20448;-84
2022/06/12 11:41:51;;;;;;;2.70;1.73;;;;;;;;;;4987726;28;20432;-84
2022/06/12 11:44:24;;;;;;;3.43;1.70;;;;;;;;;;4987289;28;20401;-84
2022/06/12 11:47:03;;;;;;;3.63;1.40;;;;;;;;;;4986853;28;20393;-85
2022/06/12 11:49:29;;;;;;;2.67;1.40;;;;;;;;;;4985327;28;20559;-85
2022/06/12 11:52:07;;;;;;;2.20;1.30;;;;;;;;;;4984559;28;20413;-85
2022/06/12 11:54:39;;;;;;;2.23;1.30;;;;;;;;;;4984256;28;20405;-85
2022/06/12 11:57:23;;;;;;;1.97;1.37;;;;;;;;;;4983605;28;20413;-85
2022/06/12 11:59:49;;;;;;;2.07;1.43;;;;;;;;;;4983818;28;20467;-85
2022/06/12 12:02:15;;;;;;;2.23;1.20;;;;;;;;;;4984042;28;20816;-84
2022/06/12 12:04:44;;;;;;;2.47;1.27;;;;;;;;;;4984336;28;20432;-85
2022/06/12 12:07:17;;;;;;;2.50;1.40;;;;;;;;;;4984963;28;20806;-85
2022/06/12 12:09:43;;;;;;;2.23;1.40;;;;;;;;;;4981733;28;20479;-85
2022/06/12 12:12:32;;;;;;;2.20;1.30;;;;;;;;;;4984033;28;20793;-85
2022/06/12 12:15:00;;;;;;;2.60;1.53;;;;;;;;;;4975064;28;20418;-85
2022/06/12 12:17:29;;;;;;;2.20;1.20;;;;;;;;;;4982821;28;20460;-85
2022/06/12 12:20:01;;;;;;;3.70;1.47;;;;;;;;;;4983970;28;20428;-85
2022/06/12 12:22:39;;;;;;;2.60;1.23;;;;;;;;;;4983769;28;20500;-85
2022/06/12 12:25:14;;;;;;;2.73;1.20;;;;;;;;;;4985144;28;20405;-84
2022/06/12 12:27:42;;;;;;;2.80;1.00;;;;;;;;;;4986204;28;20396;-85
2022/06/12 12:30:20;;;;;;;2.00;1.10;;;;;;;;;;4984793;28;20480;-85
2022/06/12 12:32:48;;;;;;;2.10;1.53;;;;;;;;;;4987014;28;20461;-85
2022/06/12 12:41:11;;;;;;;3.17;1.20;;;;;;;;;;4979383;28;20788;-86
2022/06/12 12:43:57;;;;;;;2.17;1.57;;;;;;;;;;4978654;28;20905;-86
2022/06/12 12:46:28;;;;;;;3.17;1.50;;;;;;;;;;4982780;28;20413;-84
2022/06/12 12:48:54;;;;;;;1.97;1.20;;;;;;;;;;4982181;28;20955;-84
2022/06/12 12:51:32;;;;;;;2.87;1.27;;;;;;;;;;4982560;28;20397;-84
2022/06/12 12:54:18;;;;;;;2.23;1.47;;;;;;;;;;4982211;28;20412;-84
2022/06/12 12:56:53;;;;;;;3.03;1.57;;;;;;;;;;4982098;28;20404;-84
2022/06/12 12:59:19;;;;;;;1.90;1.30;;;;;;;;;;4983792;28;20946;-84
2022/06/12 13:01:47;;;;;;;2.97;1.30;;;;;;;;;;4984695;28;20437;-85
2022/06/12 13:04:20;;;;;;;2.87;1.43;;;;;;;;;;4982902;28;20409;-85
2022/06/12 13:06:53;;;;;;;3.43;1.30;;;;;;;;;;4983440;28;20405;-85
2022/06/12 13:09:46;;;;;;;3.80;1.43;;;;;;;;;;4983426;28;20475;-85
2022/06/12 13:12:26;;;;;;;3.03;1.20;;;;;;;;;;4983808;28;20405;-85
2022/06/12 13:15:19;;;;;;;1.90;1.30;;;;;;;;;;4982474;28;20426;-84
2022/06/12 13:17:45;;;;;;;1.60;1.07;;;;;;;;;;4983485;28;20432;-84
2022/06/12 13:20:14;;;;;;;2.53;1.47;;;;;;;;;;4984460;28;20425;-83
2022/06/12 13:22:43;;;;;;;3.77;2.00;;;;;;;;;;4982207;28;20409;-84
2022/06/12 13:25:12;;;;;;;2.40;1.67;;;;;;;;;;4982037;28;20412;-83
2022/06/12 13:27:55;;;;;;;2.50;1.67;;;;;;;;;;4984553;28;20436;-82
2022/06/12 13:30:24;;;;;;;3.60;1.20;;;;;;;;;;4982787;28;20516;-82
2022/06/12 13:32:50;;;;;;;4.57;1.40;;;;;;;;;;4984479;28;20413;-83
2022/06/12 13:35:30;;;;;;;2.80;1.30;;;;;;;;;;4983818;28;20440;-83
2022/06/12 13:37:57;;;;;;;2.00;1.20;;;;;;;;;;4982942;28;20431;-83
2022/06/12 13:40:25;;;;;;;2.07;1.30;;;;;;;;;;4982922;28;20421;-83
2022/06/12 13:42:52;;;;;;;1.90;1.27;;;;;;;;;;4978666;28;20758;-83
2022/06/12 13:45:20;;;;;;;2.63;1.23;;;;;;;;;;4978653;28;20447;-82
2022/06/12 13:47:46;;;;;;;2.10;1.33;;;;;;;;;;4981267;28;20439;-83
2022/06/12 13:50:21;;;;;;;1.90;1.33;;;;;;;;;;4985593;28;20460;-83
2022/06/12 13:53:00;;;;;;;1.77;1.23;;;;;;;;;;4980586;28;20507;-83
2022/06/12 13:55:29;;;;;;;1.97;1.20;;;;;;;;;;4983677;28;20389;-83
2022/06/12 13:57:59;;;;;;;1.97;1.10;;;;;;;;;;4981096;28;20401;-83
2022/06/12 14:00:34;;;;;;;2.20;1.23;;;;;;;;;;4979783;28;20509;-83
2022/06/12 14:03:00;;;;;;;2.13;1.37;;;;;;;;;;4979266;28;20495;-82
2022/06/12 14:05:28;;;;;;;1.70;1.00;;;;;;;;;;4985408;28;20440;-83
2022/06/12 14:07:55;;;;;;;2.23;1.10;;;;;;;;;;4979237;28;21013;-84
2022/06/12 14:10:30;;;;;;;2.60;1.17;;;;;;;;;;4978305;28;20487;-83
2022/06/12 14:12:57;;;;;;;2.30;1.10;;;;;;;;;;4983707;28;20452;-83
2022/06/12 14:15:27;;;;;;;2.10;1.20;;;;;;;;;;4981747;28;20406;-81
2022/06/12 14:17:55;;;;;;;1.67;0.90;;;;;;;;;;4981972;28;20405;-82
2022/06/12 14:20:26;;;;;;;2.13;1.10;;;;;;;;;;4983704;28;20857;-83
2022/06/12 14:22:55;;;;;;;1.90;1.10;;;;;;;;;;4984969;28;20783;-83
2022/06/12 14:25:28;;;;;;;2.93;1.63;;;;;;;;;;4984833;28;20423;-83
2022/06/12 14:27:54;;;;;;;2.50;1.17;;;;;;;;;;4984050;28;20417;-83
2022/06/12 14:30:39;;;;;;;4.23;1.43;;;;;;;;;;4985074;28;20487;-83
2022/06/12 14:33:25;;;;;;;4.40;1.83;;;;;;;;;;4983438;28;20408;-83
2022/06/12 14:35:52;;;;;;;2.07;1.43;;;;;;;;;;4983400;28;20986;-83
2022/06/12 14:38:19;;;;;;;2.10;1.53;;;;;;;;;;4985001;28;20405;-83
2022/06/12 14:40:46;;;;;;;2.23;1.43;;;;;;;;;;4986309;28;20425;-83
2022/06/12 14:43:13;;;;;;;2.53;1.40;;;;;;;;;;4987428;28;20444;-83
2022/06/12 14:45:44;;;;;;;2.63;1.63;;;;;;;;;;4986206;28;20540;-83
2022/06/12 14:48:12;;;;;;;2.10;1.17;;;;;;;;;;4985220;28;20413;-83
2022/06/12 14:50:38;;;;;;;2.63;1.50;;;;;;;;;;4984139;28;20464;-83
2022/06/12 14:53:04;;;;;;;2.33;1.40;;;;;;;;;;4984483;28;20414;-83
2022/06/12 14:55:30;;;;;;;2.20;1.33;;;;;;;;;;4982472;28;20404;-83
2022/06/12 14:57:57;;;;;;;3.30;1.43;;;;;;;;;;4981935;28;20433;-83
2022/06/12 15:00:26;;;;;;;2.90;1.87;;;;;;;;;;4984061;28;20425;-84
2022/06/12 15:02:52;;;;;;;3.30;1.53;;;;;;;;;;4982717;28;20414;-84
2022/06/12 15:05:26;;;;;;;3.20;1.40;;;;;;;;;;4985051;28;20455;-84
2022/06/12 15:07:52;;;;;;;2.10;1.50;;;;;;;;;;4983665;28;20393;-83
2022/06/12 15:10:18;;;;;;;2.00;1.20;;;;;;;;;;4984398;28;20872;-83
2022/06/12 15:12:45;;;;;;;2.80;1.63;;;;;;;;;;4985594;28;20437;-84
2022/06/12 15:15:18;;;;;;;2.27;1.53;;;;;;;;;;4984326;28;20405;-84
2022/06/12 15:17:44;;;;;;;2.93;1.30;;;;;;;;;;4984733;28;20765;-83
2022/06/12 15:20:11;;;;;;;3.13;1.17;;;;;;;;;;4982639;28;20528;-84